sensor_id;sensor_type;location;lat;lon;timestamp;temperature;humidity
13245;DHT22;6689;53.400;12.486;2023-04-24T00:00:23;12.10;99.40
13245;DHT22;6689;53.400;12.486;2023-04-24T00:02:51;12.00;99.90
13245;DHT22;6689;53.400;12.486;2023-04-24T00:05:24;12.10;99.90
13245;DHT22;6689;53.400;12.486;2023-04-24T00:07:51;12.00;99.90
13245;DHT22;6689;53.400;12.486;2023-04-24T00:10:19;12.00;99.90
13245;DHT22;6689;53.400;12.486;2023-04-24T00:12:47;12.00;99.90
13245;DHT22;6689;53.400;12.486;2023-04-24T00:15:16;11.90;99.90
13245;DHT22;6689;53.400;12.486;2023-04-24T00:17:44;12.00;99.90
13245;DHT22;6689;53.400;12.486;2023-04-24T00:20:11;11.90;99.90
13245;DHT22;6689;53.400;12.486;2023-04-24T00:22:46;12.00;99.90
13245;DHT22;6689;53.400;12.486;2023-04-24T00:25:14;12.10;99.90
13245;DHT22;6689;53.400;12.486;2023-04-24T00:27:41;12.00;99.90
13245;DHT22;6689;53.400;12.486;2023-04-24T00:30:09;12.00;99.90
13245;DHT22;6689;53.400;12.486;2023-04-24T00:32:38;12.10;99.90
13245;DHT22;6689;53.400;12.486;2023-04-24T00:35:06;12.00;99.90
13245;DHT22;6689;53.400;12.486;2023-04-24T00:37:33;12.10;99.90
13245;DHT22;6689;53.400;12.486;2023-04-24T00:40:00;12.10;99.90
13245;DHT22;6689;53.400;12.486;2023-04-24T00:42:27;12.00;99.90
13245;DHT22;6689;53.400;12.486;2023-04-24T00:44:56;12.00;99.90
13245;DHT22;6689;53.400;12.486;2023-04-24T00:47:24;12.00;99.90
13245;DHT22;6689;53.400;12.486;2023-04-24T00:49:53;12.10;99.90
13245;DHT22;6689;53.400;12.486;2023-04-24T00:52:20;12.10;99.90
13245;DHT22;6689;53.400;12.486;2023-04-24T00:54:50;12.10;99.90
13245;DHT22;6689;53.400;12.486;2023-04-24T00:57:17;12.10;99.90
13245;DHT22;6689;53.400;12.486;2023-04-24T00:59:44;12.10;99.90
13245;DHT22;6689;53.400;12.486;2023-04-24T01:02:13;12.10;99.90
13245;DHT22;6689;53.400;12.486;2023-04-24T01:04:41;12.00;99.90
13245;DHT22;6689;53.400;12.486;2023-04-24T01:07:10;12.10;99.90
13245;DHT22;6689;53.400;12.486;2023-04-24T01:09:37;12.00;99.90
13245;DHT22;6689;53.400;12.486;2023-04-24T01:12:06;12.10;99.90
13245;DHT22;6689;53.400;12.486;2023-04-24T01:14:34;12.00;99.90
13245;DHT22;6689;53.400;12.486;2023-04-24T01:17:01;12.10;99.90
13245;DHT22;6689;53.400;12.486;2023-04-24T01:19:29;12.00;99.90
13245;DHT22;6689;53.400;12.486;2023-04-24T01:21:58;12.00;99.90
13245;DHT22;6689;53.400;12.486;2023-04-24T01:24:28;12.00;99.90
13245;DHT22;6689;53.400;12.486;2023-04-24T01:26:56;12.00;99.90
13245;DHT22;6689;53.400;12.486;2023-04-24T01:29:23;12.00;99.90
13245;DHT22;6689;53.400;12.486;2023-04-24T01:31:51;12.00;99.90
13245;DHT22;6689;53.400;12.486;2023-04-24T01:34:19;12.00;99.90
13245;DHT22;6689;53.400;12.486;2023-04-24T01:36:46;11.90;99.90
13245;DHT22;6689;53.400;12.486;2023-04-24T01:39:16;11.90;99.90
13245;DHT22;6689;53.400;12.486;2023-04-24T01:41:45;11.90;99.90
13245;DHT22;6689;53.400;12.486;2023-04-24T01:44:12;11.90;99.90
13245;DHT22;6689;53.400;12.486;2023-04-24T01:46:40;11.90;99.90
13245;DHT22;6689;53.400;12.486;2023-04-24T01:49:10;11.90;99.90
13245;DHT22;6689;53.400;12.486;2023-04-24T01:51:37;11.90;99.90
13245;DHT22;6689;53.400;12.486;2023-04-24T01:54:05;11.90;99.90
13245;DHT22;6689;53.400;12.486;2023-04-24T01:56:33;12.00;99.90
13245;DHT22;6689;53.400;12.486;2023-04-24T01:59:04;11.90;99.90
13245;DHT22;6689;53.400;12.486;2023-04-24T02:01:35;12.00;99.90
13245;DHT22;6689;53.400;12.486;2023-04-24T02:04:03;11.80;99.90
13245;DHT22;6689;53.400;12.486;2023-04-24T02:06:30;11.80;99.90
13245;DHT22;6689;53.400;12.486;2023-04-24T02:09:00;11.90;99.90
13245;DHT22;6689;53.400;12.486;2023-04-24T02:11:27;11.90;99.90
13245;DHT22;6689;53.400;12.486;2023-04-24T02:13:54;11.90;99.90
13245;DHT22;6689;53.400;12.486;2023-04-24T02:16:23;11.90;99.90
13245;DHT22;6689;53.400;12.486;2023-04-24T02:18:51;12.00;99.90
13245;DHT22;6689;53.400;12.486;2023-04-24T02:21:18;12.00;99.90
13245;DHT22;6689;53.400;12.486;2023-04-24T02:23:46;12.00;99.90
13245;DHT22;6689;53.400;12.486;2023-04-24T02:26:13;12.00;99.90
13245;DHT22;6689;53.400;12.486;2023-04-24T02:28:42;12.00;99.90
13245;DHT22;6689;53.400;12.486;2023-04-24T02:31:09;11.90;99.90
13245;DHT22;6689;53.400;12.486;2023-04-24T02:33:38;12.00;99.90
13245;DHT22;6689;53.400;12.486;2023-04-24T02:36:06;12.00;99.90
13245;DHT22;6689;53.400;12.486;2023-04-24T02:38:33;12.10;99.90
13245;DHT22;6689;53.400;12.486;2023-04-24T02:41:00;12.10;99.90
13245;DHT22;6689;53.400;12.486;2023-04-24T02:43:31;12.10;99.90
13245;DHT22;6689;53.400;12.486;2023-04-24T02:45:59;12.10;99.90
13245;DHT22;6689;53.400;12.486;2023-04-24T02:48:27;12.10;99.90
13245;DHT22;6689;53.400;12.486;2023-04-24T02:50:56;12.20;99.90
13245;DHT22;6689;53.400;12.486;2023-04-24T02:53:23;12.10;99.90
13245;DHT22;6689;53.400;12.486;2023-04-24T02:55:51;12.20;99.90
13245;DHT22;6689;53.400;12.486;2023-04-24T02:58:18;12.10;99.90
13245;DHT22;6689;53.400;12.486;2023-04-24T03:00:46;12.20;99.90
13245;DHT22;6689;53.400;12.486;2023-04-24T03:03:16;12.20;99.90
13245;DHT22;6689;53.400;12.486;2023-04-24T03:05:43;12.20;99.90
13245;DHT22;6689;53.400;12.486;2023-04-24T03:08:15;12.20;99.90
13245;DHT22;6689;53.400;12.486;2023-04-24T03:10:43;12.20;99.90
13245;DHT22;6689;53.400;12.486;2023-04-24T03:13:14;12.20;99.90
13245;DHT22;6689;53.400;12.486;2023-04-24T03:15:42;12.20;99.90
13245;DHT22;6689;53.400;12.486;2023-04-24T03:18:09;12.20;99.90
13245;DHT22;6689;53.400;12.486;2023-04-24T03:20:37;12.20;99.90
13245;DHT22;6689;53.400;12.486;2023-04-24T03:23:04;12.20;99.90
13245;DHT22;6689;53.400;12.486;2023-04-24T03:25:33;12.10;99.90
13245;DHT22;6689;53.400;12.486;2023-04-24T03:28:00;12.10;99.90
13245;DHT22;6689;53.400;12.486;2023-04-24T03:30:27;12.10;99.90
13245;DHT22;6689;53.400;12.486;2023-04-24T03:32:55;12.10;99.90
13245;DHT22;6689;53.400;12.486;2023-04-24T03:35:22;12.10;99.90
13245;DHT22;6689;53.400;12.486;2023-04-24T03:37:49;12.10;99.90
13245;DHT22;6689;53.400;12.486;2023-04-24T03:40:17;12.10;99.90
13245;DHT22;6689;53.400;12.486;2023-04-24T03:42:46;12.10;99.90
13245;DHT22;6689;53.400;12.486;2023-04-24T03:45:13;12.10;99.90
13245;DHT22;6689;53.400;12.486;2023-04-24T03:47:41;12.10;99.90
13245;DHT22;6689;53.400;12.486;2023-04-24T03:50:09;12.00;99.90
13245;DHT22;6689;53.400;12.486;2023-04-24T03:52:36;12.10;99.90
13245;DHT22;6689;53.400;12.486;2023-04-24T03:55:04;12.10;99.90
13245;DHT22;6689;53.400;12.486;2023-04-24T03:57:32;12.00;99.90
13245;DHT22;6689;53.400;12.486;2023-04-24T04:00:00;12.00;1.00
13245;DHT22;6689;53.400;12.486;2023-04-24T04:02:33;12.10;99.90
13245;DHT22;6689;53.400;12.486;2023-04-24T04:05:02;12.10;99.90
13245;DHT22;6689;53.400;12.486;2023-04-24T04:07:29;12.10;99.90
13245;DHT22;6689;53.400;12.486;2023-04-24T04:09:56;12.10;1.00
13245;DHT22;6689;53.400;12.486;2023-04-24T04:12:24;12.10;99.90
13245;DHT22;6689;53.400;12.486;2023-04-24T04:14:54;12.10;99.90
13245;DHT22;6689;53.400;12.486;2023-04-24T04:17:22;12.10;1.00
13245;DHT22;6689;53.400;12.486;2023-04-24T04:19:52;12.10;1.00
13245;DHT22;6689;53.400;12.486;2023-04-24T04:22:19;12.10;1.00
13245;DHT22;6689;53.400;12.486;2023-04-24T04:24:46;12.10;1.00
13245;DHT22;6689;53.400;12.486;2023-04-24T04:27:18;12.10;1.00
13245;DHT22;6689;53.400;12.486;2023-04-24T04:29:46;12.10;1.00
13245;DHT22;6689;53.400;12.486;2023-04-24T04:32:14;12.10;1.00
13245;DHT22;6689;53.400;12.486;2023-04-24T04:34:43;12.10;1.00
13245;DHT22;6689;53.400;12.486;2023-04-24T04:37:12;12.10;1.00
13245;DHT22;6689;53.400;12.486;2023-04-24T04:39:40;12.20;99.90
13245;DHT22;6689;53.400;12.486;2023-04-24T04:42:07;12.20;99.90
13245;DHT22;6689;53.400;12.486;2023-04-24T04:44:34;12.20;1.00
13245;DHT22;6689;53.400;12.486;2023-04-24T04:47:04;12.20;1.40
13245;DHT22;6689;53.400;12.486;2023-04-24T04:49:32;12.20;99.90
13245;DHT22;6689;53.400;12.486;2023-04-24T04:52:01;12.30;99.90
13245;DHT22;6689;53.400;12.486;2023-04-24T04:54:32;12.30;99.90
13245;DHT22;6689;53.400;12.486;2023-04-24T04:57:00;12.30;99.90
13245;DHT22;6689;53.400;12.486;2023-04-24T04:59:28;12.30;99.90
13245;DHT22;6689;53.400;12.486;2023-04-24T05:01:55;12.40;99.90
13245;DHT22;6689;53.400;12.486;2023-04-24T05:04:23;12.40;99.90
13245;DHT22;6689;53.400;12.486;2023-04-24T05:06:51;12.40;99.90
13245;DHT22;6689;53.400;12.486;2023-04-24T05:09:20;12.40;99.90
13245;DHT22;6689;53.400;12.486;2023-04-24T05:11:48;12.40;99.90
13245;DHT22;6689;53.400;12.486;2023-04-24T05:14:19;12.40;99.90
13245;DHT22;6689;53.400;12.486;2023-04-24T05:16:46;12.40;99.90
13245;DHT22;6689;53.400;12.486;2023-04-24T05:19:14;12.40;99.90
13245;DHT22;6689;53.400;12.486;2023-04-24T05:21:41;12.40;99.90
13245;DHT22;6689;53.400;12.486;2023-04-24T05:24:09;12.40;99.90
13245;DHT22;6689;53.400;12.486;2023-04-24T05:26:37;12.40;99.90
13245;DHT22;6689;53.400;12.486;2023-04-24T05:29:05;12.40;99.90
13245;DHT22;6689;53.400;12.486;2023-04-24T05:31:32;12.40;99.90
13245;DHT22;6689;53.400;12.486;2023-04-24T05:34:00;12.50;99.90
13245;DHT22;6689;53.400;12.486;2023-04-24T05:36:27;12.50;99.90
13245;DHT22;6689;53.400;12.486;2023-04-24T05:38:55;12.50;99.90
13245;DHT22;6689;53.400;12.486;2023-04-24T05:41:22;12.60;99.90
13245;DHT22;6689;53.400;12.486;2023-04-24T05:43:51;12.60;99.90
13245;DHT22;6689;53.400;12.486;2023-04-24T05:46:18;12.70;99.90
13245;DHT22;6689;53.400;12.486;2023-04-24T05:48:46;12.80;99.90
13245;DHT22;6689;53.400;12.486;2023-04-24T05:51:13;12.90;99.90
13245;DHT22;6689;53.400;12.486;2023-04-24T05:53:43;13.00;99.90
13245;DHT22;6689;53.400;12.486;2023-04-24T05:56:10;13.00;99.90
13245;DHT22;6689;53.400;12.486;2023-04-24T05:58:37;13.10;99.90
13245;DHT22;6689;53.400;12.486;2023-04-24T06:01:06;13.10;99.90
13245;DHT22;6689;53.400;12.486;2023-04-24T06:03:33;13.20;99.90
13245;DHT22;6689;53.400;12.486;2023-04-24T06:06:01;13.20;99.90
13245;DHT22;6689;53.400;12.486;2023-04-24T06:08:28;13.30;99.90
13245;DHT22;6689;53.400;12.486;2023-04-24T06:10:55;13.40;99.90
13245;DHT22;6689;53.400;12.486;2023-04-24T06:13:22;13.40;99.90
13245;DHT22;6689;53.400;12.486;2023-04-24T06:15:50;13.60;99.90
13245;DHT22;6689;53.400;12.486;2023-04-24T06:18:18;13.70;99.90
13245;DHT22;6689;53.400;12.486;2023-04-24T06:20:47;13.70;99.90
13245;DHT22;6689;53.400;12.486;2023-04-24T06:23:14;13.80;99.90
13245;DHT22;6689;53.400;12.486;2023-04-24T06:25:42;13.90;99.90
13245;DHT22;6689;53.400;12.486;2023-04-24T06:28:09;13.90;99.90
13245;DHT22;6689;53.400;12.486;2023-04-24T06:30:36;14.00;99.90
13245;DHT22;6689;53.400;12.486;2023-04-24T06:33:04;14.20;99.90
13245;DHT22;6689;53.400;12.486;2023-04-24T06:35:32;14.30;99.90
13245;DHT22;6689;53.400;12.486;2023-04-24T06:38:00;14.50;99.90
13245;DHT22;6689;53.400;12.486;2023-04-24T06:40:27;14.50;99.90
13245;DHT22;6689;53.400;12.486;2023-04-24T06:42:55;15.40;99.90
13245;DHT22;6689;53.400;12.486;2023-04-24T06:45:23;16.50;99.90
13245;DHT22;6689;53.400;12.486;2023-04-24T06:47:51;17.90;86.40
13245;DHT22;6689;53.400;12.486;2023-04-24T06:50:18;18.90;9.90
13245;DHT22;6689;53.400;12.486;2023-04-24T06:52:47;19.80;1.00
13245;DHT22;6689;53.400;12.486;2023-04-24T06:55:15;19.10;1.00
13245;DHT22;6689;53.400;12.486;2023-04-24T06:57:45;20.20;1.00
13245;DHT22;6689;53.400;12.486;2023-04-24T07:00:13;20.10;1.00
13245;DHT22;6689;53.400;12.486;2023-04-24T07:02:41;21.20;1.00
13245;DHT22;6689;53.400;12.486;2023-04-24T07:05:08;22.40;1.00
13245;DHT22;6689;53.400;12.486;2023-04-24T07:07:36;21.80;1.00
13245;DHT22;6689;53.400;12.486;2023-04-24T07:10:08;22.20;1.00
13245;DHT22;6689;53.400;12.486;2023-04-24T07:12:38;21.80;1.00
13245;DHT22;6689;53.400;12.486;2023-04-24T07:15:07;20.90;1.00
13245;DHT22;6689;53.400;12.486;2023-04-24T07:17:34;20.60;1.00
13245;DHT22;6689;53.400;12.486;2023-04-24T07:20:05;19.50;1.00
13245;DHT22;6689;53.400;12.486;2023-04-24T07:22:34;19.30;1.00
13245;DHT22;6689;53.400;12.486;2023-04-24T07:25:02;19.00;1.00
13245;DHT22;6689;53.400;12.486;2023-04-24T07:27:30;18.60;1.00
13245;DHT22;6689;53.400;12.486;2023-04-24T07:29:58;18.40;1.00
13245;DHT22;6689;53.400;12.486;2023-04-24T07:32:26;18.00;1.00
13245;DHT22;6689;53.400;12.486;2023-04-24T07:34:53;17.90;1.00
13245;DHT22;6689;53.400;12.486;2023-04-24T07:37:22;17.90;1.00
13245;DHT22;6689;53.400;12.486;2023-04-24T07:39:50;17.40;1.00
13245;DHT22;6689;53.400;12.486;2023-04-24T07:42:17;17.30;1.00
13245;DHT22;6689;53.400;12.486;2023-04-24T07:44:46;16.90;1.00
13245;DHT22;6689;53.400;12.486;2023-04-24T07:47:13;16.80;1.00
13245;DHT22;6689;53.400;12.486;2023-04-24T07:49:41;16.60;1.00
13245;DHT22;6689;53.400;12.486;2023-04-24T07:52:09;16.50;1.00
13245;DHT22;6689;53.400;12.486;2023-04-24T07:54:37;16.30;1.00
13245;DHT22;6689;53.400;12.486;2023-04-24T07:57:07;16.30;1.00
13245;DHT22;6689;53.400;12.486;2023-04-24T07:59:34;16.20;1.00
13245;DHT22;6689;53.400;12.486;2023-04-24T08:02:03;16.20;1.00
13245;DHT22;6689;53.400;12.486;2023-04-24T08:04:33;16.00;1.90
13245;DHT22;6689;53.400;12.486;2023-04-24T08:07:00;15.90;1.00
13245;DHT22;6689;53.400;12.486;2023-04-24T08:09:27;15.90;1.00
13245;DHT22;6689;53.400;12.486;2023-04-24T08:11:55;15.70;1.00
13245;DHT22;6689;53.400;12.486;2023-04-24T08:14:22;15.70;1.00
13245;DHT22;6689;53.400;12.486;2023-04-24T08:16:49;15.80;9.30
13245;DHT22;6689;53.400;12.486;2023-04-24T08:19:18;16.10;9.50
13245;DHT22;6689;53.400;12.486;2023-04-24T08:21:45;16.40;7.30
13245;DHT22;6689;53.400;12.486;2023-04-24T08:24:13;16.50;15.30
13245;DHT22;6689;53.400;12.486;2023-04-24T08:26:40;16.40;1.00
13245;DHT22;6689;53.400;12.486;2023-04-24T08:29:08;16.30;1.00
13245;DHT22;6689;53.400;12.486;2023-04-24T08:31:36;16.20;1.00
13245;DHT22;6689;53.400;12.486;2023-04-24T08:34:04;16.00;1.00
13245;DHT22;6689;53.400;12.486;2023-04-24T08:36:33;16.00;1.00
13245;DHT22;6689;53.400;12.486;2023-04-24T08:39:01;15.90;1.00
13245;DHT22;6689;53.400;12.486;2023-04-24T08:41:28;15.90;5.40
13245;DHT22;6689;53.400;12.486;2023-04-24T08:43:56;15.90;8.40
13245;DHT22;6689;53.400;12.486;2023-04-24T08:46:25;15.90;7.20
13245;DHT22;6689;53.400;12.486;2023-04-24T08:48:53;15.90;15.00
13245;DHT22;6689;53.400;12.486;2023-04-24T08:51:20;15.80;7.40
13245;DHT22;6689;53.400;12.486;2023-04-24T08:53:49;15.90;6.20
13245;DHT22;6689;53.400;12.486;2023-04-24T08:56:18;16.00;9.70
13245;DHT22;6689;53.400;12.486;2023-04-24T08:58:46;16.10;14.00
13245;DHT22;6689;53.400;12.486;2023-04-24T09:01:14;16.20;1.00
13245;DHT22;6689;53.400;12.486;2023-04-24T09:03:42;16.40;2.50
13245;DHT22;6689;53.400;12.486;2023-04-24T09:06:10;16.60;1.00
13245;DHT22;6689;53.400;12.486;2023-04-24T09:08:39;16.70;1.00
13245;DHT22;6689;53.400;12.486;2023-04-24T09:11:10;16.90;1.00
13245;DHT22;6689;53.400;12.486;2023-04-24T09:13:38;17.10;1.00
13245;DHT22;6689;53.400;12.486;2023-04-24T09:16:06;17.20;1.00
13245;DHT22;6689;53.400;12.486;2023-04-24T09:18:33;17.10;1.00
13245;DHT22;6689;53.400;12.486;2023-04-24T09:21:03;17.10;1.00
13245;DHT22;6689;53.400;12.486;2023-04-24T09:23:31;17.20;1.00
13245;DHT22;6689;53.400;12.486;2023-04-24T09:26:00;17.30;1.00
13245;DHT22;6689;53.400;12.486;2023-04-24T09:28:30;17.20;1.00
13245;DHT22;6689;53.400;12.486;2023-04-24T09:31:06;17.40;1.00
13245;DHT22;6689;53.400;12.486;2023-04-24T09:33:34;17.30;1.00
13245;DHT22;6689;53.400;12.486;2023-04-24T09:36:01;17.30;1.00
13245;DHT22;6689;53.400;12.486;2023-04-24T09:38:33;17.20;1.00
13245;DHT22;6689;53.400;12.486;2023-04-24T09:41:02;17.20;1.00
13245;DHT22;6689;53.400;12.486;2023-04-24T09:43:31;17.20;1.00
13245;DHT22;6689;53.400;12.486;2023-04-24T09:46:00;17.20;1.00
13245;DHT22;6689;53.400;12.486;2023-04-24T09:48:32;17.20;1.00
13245;DHT22;6689;53.400;12.486;2023-04-24T09:51:01;17.20;1.00
13245;DHT22;6689;53.400;12.486;2023-04-24T09:53:30;17.20;1.00
13245;DHT22;6689;53.400;12.486;2023-04-24T09:56:02;17.20;1.00
13245;DHT22;6689;53.400;12.486;2023-04-24T09:58:31;17.20;1.00
13245;DHT22;6689;53.400;12.486;2023-04-24T10:00:58;17.20;1.00
13245;DHT22;6689;53.400;12.486;2023-04-24T10:03:26;17.10;1.00
13245;DHT22;6689;53.400;12.486;2023-04-24T10:05:58;17.10;1.00
13245;DHT22;6689;53.400;12.486;2023-04-24T10:08:26;17.00;1.00
13245;DHT22;6689;53.400;12.486;2023-04-24T10:11:00;17.00;1.00
13245;DHT22;6689;53.400;12.486;2023-04-24T10:13:30;16.80;1.00
13245;DHT22;6689;53.400;12.486;2023-04-24T10:16:02;16.70;1.00
13245;DHT22;6689;53.400;12.486;2023-04-24T10:18:30;16.70;1.00
13245;DHT22;6689;53.400;12.486;2023-04-24T10:21:00;16.60;1.00
13245;DHT22;6689;53.400;12.486;2023-04-24T10:23:28;16.40;1.00
13245;DHT22;6689;53.400;12.486;2023-04-24T10:25:57;16.30;1.00
13245;DHT22;6689;53.400;12.486;2023-04-24T10:28:24;16.30;1.00
13245;DHT22;6689;53.400;12.486;2023-04-24T10:30:54;16.20;1.00
13245;DHT22;6689;53.400;12.486;2023-04-24T10:33:24;16.10;1.00
13245;DHT22;6689;53.400;12.486;2023-04-24T10:35:53;16.10;1.00
13245;DHT22;6689;53.400;12.486;2023-04-24T10:38:24;16.10;1.00
13245;DHT22;6689;53.400;12.486;2023-04-24T10:40:57;16.40;1.00
13245;DHT22;6689;53.400;12.486;2023-04-24T10:43:34;16.70;1.00
13245;DHT22;6689;53.400;12.486;2023-04-24T10:46:02;16.90;1.00
13245;DHT22;6689;53.400;12.486;2023-04-24T10:48:43;17.50;1.00
13245;DHT22;6689;53.400;12.486;2023-04-24T10:51:14;17.80;1.00
13245;DHT22;6689;53.400;12.486;2023-04-24T10:53:41;17.70;1.00
13245;DHT22;6689;53.400;12.486;2023-04-24T10:56:09;17.80;1.00
13245;DHT22;6689;53.400;12.486;2023-04-24T10:58:39;17.90;1.00
13245;DHT22;6689;53.400;12.486;2023-04-24T11:01:23;17.90;1.00
13245;DHT22;6689;53.400;12.486;2023-04-24T11:03:55;17.80;1.00
13245;DHT22;6689;53.400;12.486;2023-04-24T11:06:29;17.40;1.00
13245;DHT22;6689;53.400;12.486;2023-04-24T11:09:03;17.30;1.00
13245;DHT22;6689;53.400;12.486;2023-04-24T11:11:32;17.10;1.00
13245;DHT22;6689;53.400;12.486;2023-04-24T11:14:07;16.90;1.00
13245;DHT22;6689;53.400;12.486;2023-04-24T11:16:43;16.70;1.00
13245;DHT22;6689;53.400;12.486;2023-04-24T11:19:21;16.50;3.30
13245;DHT22;6689;53.400;12.486;2023-04-24T11:21:55;16.20;17.10
13245;DHT22;6689;53.400;12.486;2023-04-24T11:24:24;16.20;19.80
13245;DHT22;6689;53.400;12.486;2023-04-24T11:26:52;16.10;33.30
13245;DHT22;6689;53.400;12.486;2023-04-24T11:29:22;16.00;44.70
13245;DHT22;6689;53.400;12.486;2023-04-24T11:31:49;16.00;41.90
13245;DHT22;6689;53.400;12.486;2023-04-24T11:34:18;16.10;52.70
13245;DHT22;6689;53.400;12.486;2023-04-24T11:36:46;16.20;49.30
13245;DHT22;6689;53.400;12.486;2023-04-24T11:39:14;16.50;62.40
13245;DHT22;6689;53.400;12.486;2023-04-24T11:41:41;16.60;57.30
13245;DHT22;6689;53.400;12.486;2023-04-24T11:44:09;16.70;67.70
13245;DHT22;6689;53.400;12.486;2023-04-24T11:46:37;16.80;75.10
13245;DHT22;6689;53.400;12.486;2023-04-24T11:49:05;16.80;91.40
13245;DHT22;6689;53.400;12.486;2023-04-24T11:51:34;16.70;99.40
13245;DHT22;6689;53.400;12.486;2023-04-24T11:54:02;16.70;88.20
13245;DHT22;6689;53.400;12.486;2023-04-24T11:56:35;16.50;89.40
13245;DHT22;6689;53.400;12.486;2023-04-24T11:59:04;16.40;99.90
13245;DHT22;6689;53.400;12.486;2023-04-24T12:01:43;16.10;63.30
13245;DHT22;6689;53.400;12.486;2023-04-24T12:04:11;15.60;87.50
13245;DHT22;6689;53.400;12.486;2023-04-24T12:06:40;15.00;89.80
13245;DHT22;6689;53.400;12.486;2023-04-24T12:09:28;14.80;99.90
13245;DHT22;6689;53.400;12.486;2023-04-24T12:11:57;14.70;99.90
13245;DHT22;6689;53.400;12.486;2023-04-24T12:14:24;14.40;99.90
13245;DHT22;6689;53.400;12.486;2023-04-24T12:16:52;14.50;99.90
13245;DHT22;6689;53.400;12.486;2023-04-24T12:19:21;14.50;99.90
13245;DHT22;6689;53.400;12.486;2023-04-24T12:22:01;14.40;99.90
13245;DHT22;6689;53.400;12.486;2023-04-24T12:24:29;14.50;99.90
13245;DHT22;6689;53.400;12.486;2023-04-24T12:26:57;14.70;99.90
13245;DHT22;6689;53.400;12.486;2023-04-24T12:29:27;14.90;99.90
13245;DHT22;6689;53.400;12.486;2023-04-24T12:31:54;15.10;99.90
13245;DHT22;6689;53.400;12.486;2023-04-24T12:34:24;15.30;99.90
13245;DHT22;6689;53.400;12.486;2023-04-24T12:36:52;15.50;99.90
13245;DHT22;6689;53.400;12.486;2023-04-24T12:39:21;15.60;99.90
13245;DHT22;6689;53.400;12.486;2023-04-24T12:41:59;15.60;99.90
13245;DHT22;6689;53.400;12.486;2023-04-24T12:44:30;15.50;99.90
13245;DHT22;6689;53.400;12.486;2023-04-24T12:47:00;15.60;99.90
13245;DHT22;6689;53.400;12.486;2023-04-24T12:49:30;15.70;99.90
13245;DHT22;6689;53.400;12.486;2023-04-24T12:51:58;16.00;99.90
13245;DHT22;6689;53.400;12.486;2023-04-24T12:54:32;16.30;99.90
13245;DHT22;6689;53.400;12.486;2023-04-24T12:57:00;16.50;99.90
13245;DHT22;6689;53.400;12.486;2023-04-24T12:59:27;16.80;99.90
13245;DHT22;6689;53.400;12.486;2023-04-24T13:01:55;17.00;99.90
13245;DHT22;6689;53.400;12.486;2023-04-24T13:04:22;17.00;99.90
13245;DHT22;6689;53.400;12.486;2023-04-24T13:06:50;17.10;99.90
13245;DHT22;6689;53.400;12.486;2023-04-24T13:09:17;17.20;99.90
13245;DHT22;6689;53.400;12.486;2023-04-24T13:11:46;17.40;99.90
13245;DHT22;6689;53.400;12.486;2023-04-24T13:14:14;17.60;48.50
13245;DHT22;6689;53.400;12.486;2023-04-24T13:16:42;17.70;33.70
13245;DHT22;6689;53.400;12.486;2023-04-24T13:19:09;17.70;35.90
13245;DHT22;6689;53.400;12.486;2023-04-24T13:21:36;17.70;21.40
13245;DHT22;6689;53.400;12.486;2023-04-24T13:24:05;17.80;12.20
13245;DHT22;6689;53.400;12.486;2023-04-24T13:26:33;17.80;24.20
13245;DHT22;6689;53.400;12.486;2023-04-24T13:29:02;18.00;35.60
13245;DHT22;6689;53.400;12.486;2023-04-24T13:31:31;18.10;10.10
13245;DHT22;6689;53.400;12.486;2023-04-24T13:34:00;18.20;36.90
13245;DHT22;6689;53.400;12.486;2023-04-24T13:36:27;18.40;1.00
13245;DHT22;6689;53.400;12.486;2023-04-24T13:38:56;18.30;1.00
13245;DHT22;6689;53.400;12.486;2023-04-24T13:41:23;18.30;1.00
13245;DHT22;6689;53.400;12.486;2023-04-24T13:43:50;18.40;1.00
13245;DHT22;6689;53.400;12.486;2023-04-24T13:46:19;18.40;1.00
13245;DHT22;6689;53.400;12.486;2023-04-24T13:48:47;18.60;1.00
13245;DHT22;6689;53.400;12.486;2023-04-24T13:51:14;18.40;1.00
13245;DHT22;6689;53.400;12.486;2023-04-24T13:53:41;18.40;1.00
13245;DHT22;6689;53.400;12.486;2023-04-24T13:56:08;18.30;1.00
13245;DHT22;6689;53.400;12.486;2023-04-24T13:58:38;18.10;1.00
13245;DHT22;6689;53.400;12.486;2023-04-24T14:01:07;18.00;1.00
13245;DHT22;6689;53.400;12.486;2023-04-24T14:03:37;18.20;1.00
13245;DHT22;6689;53.400;12.486;2023-04-24T14:06:05;18.20;1.00
13245;DHT22;6689;53.400;12.486;2023-04-24T14:08:33;18.20;1.00
13245;DHT22;6689;53.400;12.486;2023-04-24T14:11:00;17.90;1.00
13245;DHT22;6689;53.400;12.486;2023-04-24T14:13:28;18.10;1.00
13245;DHT22;6689;53.400;12.486;2023-04-24T14:15:56;18.00;1.00
13245;DHT22;6689;53.400;12.486;2023-04-24T14:18:24;17.90;1.00
13245;DHT22;6689;53.400;12.486;2023-04-24T14:20:57;17.90;1.00
13245;DHT22;6689;53.400;12.486;2023-04-24T14:23:27;17.90;1.00
13245;DHT22;6689;53.400;12.486;2023-04-24T14:25:55;17.70;1.00
13245;DHT22;6689;53.400;12.486;2023-04-24T14:28:24;17.70;1.00
13245;DHT22;6689;53.400;12.486;2023-04-24T14:30:52;17.80;1.00
13245;DHT22;6689;53.400;12.486;2023-04-24T14:33:20;17.70;1.00
13245;DHT22;6689;53.400;12.486;2023-04-24T14:35:47;17.60;1.00
13245;DHT22;6689;53.400;12.486;2023-04-24T14:38:18;17.40;1.00
13245;DHT22;6689;53.400;12.486;2023-04-24T14:40:46;17.20;1.00
13245;DHT22;6689;53.400;12.486;2023-04-24T14:43:13;17.00;1.00
13245;DHT22;6689;53.400;12.486;2023-04-24T14:45:44;16.90;1.00
13245;DHT22;6689;53.400;12.486;2023-04-24T14:48:11;17.00;1.00
13245;DHT22;6689;53.400;12.486;2023-04-24T14:50:39;16.90;1.00
13245;DHT22;6689;53.400;12.486;2023-04-24T14:53:06;16.80;1.00
13245;DHT22;6689;53.400;12.486;2023-04-24T14:55:34;16.90;1.00
13245;DHT22;6689;53.400;12.486;2023-04-24T14:58:02;17.10;1.00
13245;DHT22;6689;53.400;12.486;2023-04-24T15:00:30;17.10;1.00
13245;DHT22;6689;53.400;12.486;2023-04-24T15:02:58;17.10;1.00
13245;DHT22;6689;53.400;12.486;2023-04-24T15:05:25;17.00;1.00
13245;DHT22;6689;53.400;12.486;2023-04-24T15:07:55;17.00;1.00
13245;DHT22;6689;53.400;12.486;2023-04-24T15:10:23;17.10;1.00
13245;DHT22;6689;53.400;12.486;2023-04-24T15:12:52;16.90;1.00
13245;DHT22;6689;53.400;12.486;2023-04-24T15:15:20;16.90;1.00
13245;DHT22;6689;53.400;12.486;2023-04-24T15:17:47;16.70;1.00
13245;DHT22;6689;53.400;12.486;2023-04-24T15:20:15;16.60;1.00
13245;DHT22;6689;53.400;12.486;2023-04-24T15:22:42;16.50;1.00
13245;DHT22;6689;53.400;12.486;2023-04-24T15:25:10;16.40;1.00
13245;DHT22;6689;53.400;12.486;2023-04-24T15:27:44;16.30;1.00
13245;DHT22;6689;53.400;12.486;2023-04-24T15:30:14;16.20;1.00
13245;DHT22;6689;53.400;12.486;2023-04-24T15:32:41;16.20;1.00
13245;DHT22;6689;53.400;12.486;2023-04-24T15:35:09;16.40;1.00
13245;DHT22;6689;53.400;12.486;2023-04-24T15:37:39;16.50;1.00
13245;DHT22;6689;53.400;12.486;2023-04-24T15:40:07;16.50;1.00
13245;DHT22;6689;53.400;12.486;2023-04-24T15:42:36;16.60;1.00
13245;DHT22;6689;53.400;12.486;2023-04-24T15:45:04;16.60;1.00